CYW weather

Captain Rogelio Castillo National Airport
Celaya, Guanajuato, Mexico

Public forecast

Using degrees Celsius for public forecast. Weather courtesy of forecast.io.

METAR (pilot weather report)

Report is more than 6 hours old.

Closest report is Rancho Medio Sitio Airport, 33.6 nm (62.2 km) NW. Retrieved 2013/09/22 00:30 UTC (6 years ago):

MMGT 220030Z 21010KT 9999 SCT014 BKN017

TAF (pilot weather forecast)

Closest forecast is QuerĂ©taro Intercontinental Airport, 39.6 nm (73.4 km) E. Retrieved 2019/06/15 18:44 UTC (1 hour ago):

TAF MMQT 151641Z 1518/1618 07005KT 6SM HZ SCT025 BECMG 1520/1521 05012KT FM160200 09005KT P6SM SCT025 BECMG 1605/1606 12005KT FM161000 00000KT 6SM HZ SCT015 TEMPO 1611/1615 3SM BR HZ BKN015